Flight Track Log - Related Links

Times and Time Zones

All times are in EDT time to prevent confusion due to time zone crossing. See the FLG4254 flight status page for this flight to view local times or setup timezone preferences in your user account.

Time Position Orientation Groundspeed Altitude Reporting Facility
EDT Latitude Longitude Course Direction KTS MPH feet Rate Location/Type
Tue 04:51:50 PM 33.6500 -84.3667 59° Northeast 177 204 2,800  Level Atlanta TRACON
Tue 04:52:56 PM 33.6833 -84.3000 12° North 263 303 4,600 2,200 Climbing Atlanta TRACON
Tue 04:53:50 PM 33.7500 -84.2833 328° Northwest 289 333 7,200 2,737 Climbing Atlanta TRACON
Tue 04:54:50 PM 33.8167 -84.3333 269° West 310 357 9,800 1,832 Climbing Atlanta TRACON
Tue 04:57:00 PM 33.8119 -84.5814 270° West 334 384 13,000 1,611 Climbing Atlanta Center
Tue 04:58:00 PM 33.8114 -84.6989 269° West 375 432 14,900 2,150 Climbing Atlanta Center
Tue 04:59:00 PM 33.8083 -84.8564 265° West 411 473 17,300 1,800 Climbing Atlanta Center
Tue 05:00:00 PM 33.7992 -84.9761 261° West 417 480 18,500 1,450 Climbing Atlanta Center
Tue 05:01:00 PM 33.7811 -85.1161 266° West 422 486 20,200 1,500 Climbing Atlanta Center
Tue 05:02:00 PM 33.7736 -85.2558 282° West 427 491 21,500 1,300 Climbing Atlanta Center
Tue 05:03:00 PM 33.7992 -85.3986 281° West 433 498 22,800 1,350 Climbing Atlanta Center
Tue 05:04:00 PM 33.8225 -85.5492 285° West 453 521 24,200 1,200 Climbing Atlanta Center
Tue 05:05:00 PM 33.8542 -85.6947 292° West 453 521 25,200 1,250 Climbing Atlanta Center
Tue 05:06:00 PM 33.9042 -85.8458 291° West 458 527 26,700 1,600 Climbing Atlanta Center
Tue 05:07:00 PM 33.9481 -85.9869 289° West 451 519 28,400 1,600 Climbing Atlanta Center
Tue 05:08:00 PM 33.9894 -86.1283 288° West 446 513 29,900 1,550 Climbing Atlanta Center
Tue 05:09:00 PM 34.0267 -86.2644 290° West 446 513 31,500 1,050 Climbing Atlanta Center
Tue 05:10:00 PM 34.0642 -86.3883 288° West 446 513 32,000 250 Climbing Atlanta Center
Tue 05:11:00 PM 34.1031 -86.5300 289° West 446 513 32,000  Level Atlanta Center
Tue 05:12:00 PM 34.1439 -86.6717 288° West 446 513 32,000  Level Atlanta Center
Tue 05:12:58 PM 34.1828 -86.8169 288° West 468 539 32,000  Level Memphis Center
Tue 05:13:58 PM 34.2222 -86.9611 288° West 480 552 32,000  Level Memphis Center
Tue 05:14:58 PM 34.2639 -87.1128 290° West 475 547 32,000  Level Memphis Center
Tue 05:15:58 PM 34.3072 -87.2594 288° West 475 547 32,000  Level Memphis Center
Tue 05:16:58 PM 34.3508 -87.4239 289° West 475 547 32,000  Level Memphis Center
Tue 05:17:58 PM 34.3939 -87.5733 289° West 475 547 32,000  Level Memphis Center
Tue 05:18:58 PM 34.4347 -87.7206 286° West 470 541 32,000  Level Memphis Center
Tue 05:19:58 PM 34.4711 -87.8706 289° West 470 541 32,000  Level Memphis Center
Tue 05:20:58 PM 34.5136 -88.0181 286° West 470 541 32,000  Level Memphis Center
Tue 05:21:58 PM 34.5497 -88.1683 288° West 465 535 32,000  Level Memphis Center
Tue 05:22:58 PM 34.5900 -88.3211 288° West 470 541 32,000  Level Memphis Center
Tue 05:23:58 PM 34.6300 -88.4692 288° West 470 541 32,000  Level Memphis Center
Tue 05:24:58 PM 34.6675 -88.6072 287° West 452 520 32,000  Level Memphis Center
Tue 05:25:58 PM 34.7050 -88.7581 288° West 452 520 32,000  Level Memphis Center
Tue 05:26:58 PM 34.7400 -88.8861 287° West 458 527 32,000  Level Memphis Center
Tue 05:27:58 PM 34.7769 -89.0347 287° West 458 527 32,000  Level Memphis Center
Tue 05:28:58 PM 34.8139 -89.1833 288° West 451 519 32,000  Level Memphis Center
Tue 05:29:58 PM 34.8528 -89.3297 287° West 457 526 32,000  Level Memphis Center
Tue 05:30:58 PM 34.8894 -89.4736 289° West 452 520 32,000  Level Memphis Center
Tue 05:31:58 PM 34.9300 -89.6175 292° West 452 520 32,000  Level Memphis Center
Tue 05:32:58 PM 34.9808 -89.7692 306° West 470 541 32,000  Level Memphis Center
Tue 05:33:58 PM 35.0544 -89.8953 291° West 465 535 32,000  Level Memphis Center
Tue 05:34:58 PM 35.1008 -90.0422 290° West 460 529 32,000  Level Memphis Center
Tue 05:35:58 PM 35.1450 -90.1894 291° West 465 535 32,000  Level Memphis Center
Tue 05:36:58 PM 35.1908 -90.3367 290° West 465 535 32,000  Level Memphis Center
Tue 05:37:58 PM 35.2347 -90.4867 290° West 465 535 32,000  Level Memphis Center
Tue 05:38:58 PM 35.2783 -90.6317 289° West 465 535 32,000  Level Memphis Center
Tue 05:39:58 PM 35.3236 -90.7922 289° West 465 535 32,000  Level Memphis Center
Tue 05:40:58 PM 35.3669 -90.9428 290° West 465 535 32,000  Level Memphis Center
Tue 05:41:58 PM 35.4119 -91.0908 289° West 465 535 32,000  Level Memphis Center
Tue 05:42:58 PM 35.4547 -91.2442 301° West 465 535 32,000  Level Memphis Center
Tue 05:43:58 PM 35.5206 -91.3800 319° Northwest 471 542 32,000  Level Memphis Center
Tue 05:44:58 PM 35.6136 -91.4781 319° Northwest 465 535 32,000  Level Memphis Center
Tue 05:45:58 PM 35.7147 -91.5869 321° Northwest 476 548 32,000  Level Memphis Center
Tue 05:46:58 PM 35.8242 -91.6961 320° Northwest 487 560 32,000  Level Memphis Center
Tue 05:47:58 PM 35.9314 -91.8081 318° Northwest 502 578 32,000  Level Memphis Center
Tue 05:48:58 PM 36.0342 -91.9228 319° Northwest 502 578 32,000  Level Memphis Center
Tue 05:49:58 PM 36.1369 -92.0325 322° Northwest 501 577 32,000  Level Memphis Center
Tue 05:50:58 PM 36.2522 -92.1456 319° Northwest 506 582 32,000  Level Memphis Center
Tue 05:51:58 PM 36.3589 -92.2589 319° Northwest 516 594 32,000  Level Memphis Center
Tue 05:52:58 PM 36.4675 -92.3750 319° Northwest 516 594 32,000  Level Memphis Center
Tue 05:55:26 PM 36.7519 -92.6811 319° Northwest 516 594 32,000  Level Kansas City Center
Tue 05:56:26 PM 36.8578 -92.7981 320° Northwest 516 594 32,000  Level Kansas City Center
Tue 05:57:26 PM 36.9700 -92.9150 319° Northwest 516 594 32,000  Level Kansas City Center
Tue 05:58:26 PM 37.0589 -93.0122 319° Northwest 516 594 32,000  Level Kansas City Center
Tue 05:59:26 PM 37.1794 -93.1428 318° Northwest 516 594 32,000  Level Kansas City Center
Tue 06:00:26 PM 37.2872 -93.2661 301° West 521 600 32,000  Level Kansas City Center
Tue 06:01:26 PM 37.3575 -93.4139 279° West 501 577 32,000  Level Kansas City Center
Tue 06:02:26 PM 37.3778 -93.5808 277° West 483 556 32,000  Level Kansas City Center
Tue 06:03:26 PM 37.3933 -93.7453 275° West 476 548 32,000  Level Kansas City Center
Tue 06:04:26 PM 37.4047 -93.9072 277° West 476 548 32,000  Level Kansas City Center
Tue 06:05:26 PM 37.4200 -94.0744 277° West 476 548 32,000  Level Kansas City Center
Tue 06:06:26 PM 37.4372 -94.2522 276° West 471 542 32,000  Level Kansas City Center
Tue 06:07:26 PM 37.4500 -94.4197 275° West 483 556 32,000  Level Kansas City Center
Tue 06:08:26 PM 37.4625 -94.5872 277° West 483 556 32,000  Level Kansas City Center
Tue 06:09:26 PM 37.4792 -94.7547 275° West 483 556 32,000  Level Kansas City Center
Tue 06:10:26 PM 37.4911 -94.9222 275° West 483 556 32,000  Level Kansas City Center
Tue 06:11:26 PM 37.5031 -95.0897 275° West 483 556 32,000  Level Kansas City Center
Tue 06:12:26 PM 37.5144 -95.2600 275° West 483 556 32,000 -400 Level Kansas City Center
Tue 06:13:26 PM 37.5258 -95.4278 275° West 483 556 31,200 -1,750 Descending Kansas City Center
Tue 06:14:26 PM 37.5369 -95.5956 275° West 483 556 28,500 -2,650 Descending Kansas City Center
Tue 06:15:26 PM 37.5478 -95.7633 275° West 483 556 25,900 -2,600 Descending Kansas City Center
Tue 06:16:26 PM 37.5606 -95.9339 275° West 483 556 23,300 -2,600 Descending Kansas City Center
Tue 06:17:26 PM 37.5711 -96.0939 274° West 477 549 20,700 -2,400 Descending Kansas City Center
Tue 06:18:26 PM 37.5794 -96.2408 273° West 454 522 18,500 -2,250 Descending Kansas City Center
Tue 06:19:26 PM 37.5856 -96.3825 273° West 433 498 16,200 -2,200 Descending Kansas City Center
Tue 06:20:26 PM 37.5917 -96.5214 275° West 416 479 14,100 -2,118 Descending Kansas City Center
Tue 06:21:08 PM 37.5983 -96.6108 273° West 393 452 12,600 -1,875 Descending Kansas City Center
Tue 06:22:02 PM 37.6044 -96.7394 269° West 397 457 11,100 -887 Descending Kansas City Center
Tue 06:23:03 PM 37.6019 -96.8678 246° West 369 425 10,900 -545 Descending Kansas City Center
Tue 06:24:03 PM 37.5667 -96.9689 247° West 302 348 10,000 -1,339 Descending Kansas City Center
Tue 06:25:04 PM 37.5331 -97.0700 246° West 290 334 8,200 -1,525 Descending Kansas City Center
Tue 06:26:05 PM 37.5019 -97.1578 246° West 279 321 6,900 -1,039 Descending Kansas City Center
Tue 06:27:11 PM 37.4686 -97.2508 254° West 269 310 6,000 -397 Descending Kansas City Center
Tue 06:28:06 PM 37.4500 -97.3339 276° West 284 327 6,100 -313 Climbing Kansas City Center
Tue 06:29:06 PM 37.4581 -97.4311 307° West 280 322 5,400 -1,041 Descending Kansas City Center
Tue 06:30:07 PM 37.4961 -97.4953 18° North 247 284 4,000 -1,180 Descending Kansas City Center
Tue 06:31:08 PM 37.5553 -97.4717 22° Northeast 218 251 3,000 -843 Descending Kansas City Center
Tue 06:32:08 PM 37.5975 -97.4497 19° North 152 175 2,300 -694 Descending Kansas City Center
Tue 06:33:09 PM 37.6311 -97.4353 23° Northeast 134 154 1,600 -435 Descending Kansas City Center
Tue 06:34:26 PM 37.6544 -97.4231 222° Southwest 80 92 1,300 -131 Descending Kansas City Center
Tue 06:35:26 PM 37.6522 -97.4256 222° Southwest 3 3 1,300  Level Kansas City Center

Login

Don't have an account? Register now (free) for customized features, flight alerts, and more!